Time,TemperatureF,DewpointF,PressureIn,WindDirection,WindDirectionDegrees,WindSpeedMPH,WindSpeedGustMPH,Humidity,HourlyPrecipIn,Conditions,Clouds,dailyrainin,SoftwareType,DateUTC
2013-02-01 00:01:00,19.8,11.9,29.60,WSW,253,8.0,16.0,71,0.00,,---,0.00,VWS V14.01,2013-02-01 05:01:00,
2013-02-01 00:02:00,19.8,12.2,29.60,West,269,5.0,15.0,72,0.00,,---,0.00,VWS V14.01,2013-02-01 05:02:00,
2013-02-01 00:03:00,19.8,12.2,29.60,WSW,248,6.0,14.0,72,0.00,,---,0.00,VWS V14.01,2013-02-01 05:03:00,
2013-02-01 00:08:00,19.7,12.8,29.60,WSW,256,10.0,17.0,74,0.00,,---,0.00,VWS V14.01,2013-02-01 05:08:00,
2013-02-01 00:13:00,19.6,12.7,29.60,WSW,255,13.0,22.0,74,0.00,,---,0.00,VWS V14.01,2013-02-01 05:13:00,
2013-02-01 00:18:00,19.6,12.4,29.60,West,274,9.0,19.0,73,0.00,,---,0.00,VWS V14.01,2013-02-01 05:18:00,
2013-02-01 00:23:00,19.5,12.3,29.60,West,281,13.0,15.0,73,0.00,,---,0.00,VWS V14.01,2013-02-01 05:23:00,
2013-02-01 00:28:00,19.5,12.0,29.60,West,267,10.0,19.0,72,0.00,,---,0.00,VWS V14.01,2013-02-01 05:28:00,
2013-02-01 00:33:00,19.5,11.6,29.60,West,280,11.0,17.0,71,0.00,,---,0.00,VWS V14.01,2013-02-01 05:33:00,
2013-02-01 00:38:00,19.5,11.6,29.60,West,279,13.0,17.0,71,0.00,,---,0.00,VWS V14.01,2013-02-01 05:38:00,
2013-02-01 00:44:00,19.5,11.6,29.60,West,281,6.0,15.0,71,0.00,,---,0.00,VWS V14.01,2013-02-01 05:44:00,
2013-02-01 00:49:00,19.5,12.0,29.60,WNW,284,10.0,15.0,72,0.00,,---,0.00,VWS V14.01,2013-02-01 05:49:00,
2013-02-01 00:54:00,19.5,11.6,29.60,West,273,10.0,16.0,71,0.00,,---,0.00,VWS V14.01,2013-02-01 05:54:00,
2013-02-01 00:59:00,19.5,11.6,29.60,West,277,7.0,23.0,71,0.00,,---,0.00,VWS V14.01,2013-02-01 05:59:00,
2013-02-01 01:04:00,19.5,11.3,29.60,WNW,283,10.0,19.0,70,0.00,,---,0.00,VWS V14.01,2013-02-01 06:04:00,
2013-02-01 01:09:00,19.5,11.3,29.61,WNW,288,18.0,21.0,70,0.00,,---,0.00,VWS V14.01,2013-02-01 06:09:00,
2013-02-01 01:14:00,19.5,11.0,29.61,West,271,13.0,23.0,69,0.00,,---,0.00,VWS V14.01,2013-02-01 06:14:00,
2013-02-01 01:19:00,19.5,11.3,29.61,NW,305,9.0,20.0,70,0.00,,---,0.00,VWS V14.01,2013-02-01 06:19:00,
2013-02-01 01:24:00,19.3,12.4,29.62,NW,311,11.0,19.0,74,0.00,,---,0.00,VWS V14.01,2013-02-01 06:24:00,
2013-02-01 01:29:00,18.9,14.0,29.62,NW,304,5.0,11.0,81,0.00,,---,0.00,VWS V14.01,2013-02-01 06:29:00,
2013-02-01 01:34:00,18.4,14.9,29.62,NW,324,6.0,12.0,86,0.00,,---,0.00,VWS V14.01,2013-02-01 06:34:00,
2013-02-01 01:39:00,18.0,15.3,29.63,WNW,300,7.0,11.0,89,0.00,,---,0.00,VWS V14.01,2013-02-01 06:39:00,
2013-02-01 01:45:00,17.7,15.3,29.63,WNW,297,7.0,12.0,90,0.00,,---,0.00,VWS V14.01,2013-02-01 06:45:00,
2013-02-01 01:50:00,17.5,15.1,29.63,WNW,287,8.0,11.0,90,0.00,,---,0.00,VWS V14.01,2013-02-01 06:50:00,
2013-02-01 01:55:00,17.4,15.2,29.64,West,277,4.0,11.0,91,0.00,,---,0.00,VWS V14.01,2013-02-01 06:55:00,
2013-02-01 02:00:00,17.4,15.2,29.64,WNW,284,7.0,10.0,91,0.00,,---,0.00,VWS V14.01,2013-02-01 07:00:00,
2013-02-01 02:05:00,17.3,15.1,29.64,WNW,295,5.0,12.0,91,0.00,,---,0.00,VWS V14.01,2013-02-01 07:05:00,
2013-02-01 02:10:00,17.1,14.9,29.64,WNW,291,14.0,15.0,91,0.00,,---,0.00,VWS V14.01,2013-02-01 07:10:00,
2013-02-01 02:15:00,16.8,14.6,29.64,West,278,14.0,16.0,91,0.00,,---,0.00,VWS V14.01,2013-02-01 07:15:00,
2013-02-01 02:20:00,16.7,14.8,29.64,WNW,301,8.0,17.0,92,0.00,,---,0.00,VWS V14.01,2013-02-01 07:20:00,
2013-02-01 02:25:00,16.7,14.8,29.64,WNW,293,8.0,16.0,92,0.00,,---,0.00,VWS V14.01,2013-02-01 07:25:00,
2013-02-01 02:30:00,16.6,14.7,29.64,West,281,7.0,13.0,92,0.00,,---,0.00,VWS V14.01,2013-02-01 07:30:00,
2013-02-01 02:35:00,16.6,14.7,29.65,WNW,288,10.0,11.0,92,0.00,,---,0.00,VWS V14.01,2013-02-01 07:35:00,
2013-02-01 02:40:00,16.6,14.7,29.65,WNW,287,9.0,10.0,92,0.00,,---,0.00,VWS V14.01,2013-02-01 07:40:00,
2013-02-01 02:45:00,16.6,14.7,29.65,WNW,295,8.0,15.0,92,0.00,,---,0.00,VWS V14.01,2013-02-01 07:45:00,
2013-02-01 02:50:00,16.6,14.7,29.65,West,260,12.0,14.0,92,0.00,,---,0.00,VWS V14.01,2013-02-01 07:50:00,
2013-02-01 02:55:00,16.4,14.2,29.64,WNW,287,9.0,21.0,91,0.00,,---,0.00,VWS V14.01,2013-02-01 07:55:00,
2013-02-01 03:00:00,16.3,13.9,29.64,WNW,300,9.0,19.0,90,0.00,,---,0.00,VWS V14.01,2013-02-01 08:00:00,
2013-02-01 03:05:00,16.1,13.7,29.65,WNW,290,11.0,15.0,90,0.00,,---,0.00,VWS V14.01,2013-02-01 08:05:00,
2013-02-01 03:10:00,16.0,13.6,29.65,WNW,292,14.0,19.0,90,0.00,,---,0.00,VWS V14.01,2013-02-01 08:10:00,
2013-02-01 03:15:00,15.9,13.2,29.65,WNW,288,10.0,18.0,89,0.00,,---,0.00,VWS V14.01,2013-02-01 08:15:00,
2013-02-01 03:20:00,15.8,13.1,29.65,West,273,10.0,15.0,89,0.00,,---,0.00,VWS V14.01,2013-02-01 08:20:00,
2013-02-01 03:25:00,15.7,13.0,29.65,WNW,285,8.0,15.0,89,0.00,,---,0.00,VWS V14.01,2013-02-01 08:25:00,
2013-02-01 03:31:00,15.8,12.6,29.65,West,265,8.0,19.0,87,0.00,,---,0.00,VWS V14.01,2013-02-01 08:31:00,
2013-02-01 03:36:00,15.8,12.6,29.65,WNW,283,8.0,19.0,87,0.00,,---,0.00,VWS V14.01,2013-02-01 08:36:00,
2013-02-01 03:41:00,15.8,12.6,29.65,NW,309,13.0,21.0,87,0.00,,---,0.00,VWS V14.01,2013-02-01 08:41:00,
2013-02-01 03:46:00,15.8,12.6,29.65,WNW,301,11.0,20.0,87,0.00,,---,0.00,VWS V14.01,2013-02-01 08:46:00,
2013-02-01 03:51:00,15.7,12.3,29.65,West,281,10.0,20.0,86,0.00,,---,0.00,VWS V14.01,2013-02-01 08:51:00,
2013-02-01 03:56:00,15.6,12.2,29.65,West,263,8.0,17.0,86,0.00,,---,0.00,VWS V14.01,2013-02-01 08:56:00,
2013-02-01 04:01:00,15.5,11.8,29.65,WNW,287,10.0,24.0,85,0.00,,---,0.00,VWS V14.01,2013-02-01 09:01:00,
2013-02-01 04:06:00,15.5,11.8,29.65,WSW,238,9.0,17.0,85,0.00,,---,0.00,VWS V14.01,2013-02-01 09:06:00,
2013-02-01 04:11:00,15.5,11.5,29.65,West,281,8.0,20.0,84,0.00,,---,0.00,VWS V14.01,2013-02-01 09:11:00,
2013-02-01 04:16:00,15.5,11.3,29.65,WSW,247,9.0,22.0,83,0.00,,---,0.00,VWS V14.01,2013-02-01 09:16:00,
2013-02-01 04:21:00,15.4,11.2,29.66,West,276,4.0,15.0,83,0.00,,---,0.00,VWS V14.01,2013-02-01 09:21:00,
2013-02-01 04:26:00,15.4,10.9,29.65,West,265,13.0,16.0,82,0.00,,---,0.00,VWS V14.01,2013-02-01 09:26:00,
2013-02-01 04:31:00,15.4,10.6,29.65,West,278,13.0,15.0,81,0.00,,---,0.00,VWS V14.01,2013-02-01 09:31:00,
2013-02-01 04:36:00,15.4,10.4,29.65,WNW,293,7.0,14.0,80,0.00,,---,0.00,VWS V14.01,2013-02-01 09:36:00,
2013-02-01 04:41:00,15.3,10.5,29.66,WNW,290,12.0,19.0,81,0.00,,---,0.00,VWS V14.01,2013-02-01 09:41:00,
2013-02-01 04:46:00,15.2,10.4,29.66,WNW,285,16.0,16.0,81,0.00,,---,0.00,VWS V14.01,2013-02-01 09:46:00,
2013-02-01 04:51:00,15.2,10.4,29.66,West,281,5.0,13.0,81,0.00,,---,0.00,VWS V14.01,2013-02-01 09:51:00,
2013-02-01 04:56:00,15.1,10.1,29.66,WNW,291,9.0,16.0,80,0.00,,---,0.00,VWS V14.01,2013-02-01 09:56:00,
2013-02-01 05:01:00,15.1,9.5,29.66,WNW,288,6.0,14.0,78,0.00,,---,0.00,VWS V14.01,2013-02-01 10:01:00,
2013-02-01 05:06:00,15.1,9.2,29.66,WNW,287,12.0,17.0,77,0.00,,---,0.00,VWS V14.01,2013-02-01 10:06:00,
2013-02-01 05:11:00,15.2,9.3,29.66,WSW,255,13.0,21.0,77,0.00,,---,0.00,VWS V14.01,2013-02-01 10:11:00,
2013-02-01 05:16:00,15.2,9.3,29.66,NW,308,7.0,18.0,77,0.00,,---,0.00,VWS V14.01,2013-02-01 10:16:00,
2013-02-01 05:21:00,15.2,8.7,29.66,NW,305,8.0,14.0,75,0.00,,---,0.00,VWS V14.01,2013-02-01 10:21:00,
2013-02-01 05:26:00,15.2,9.0,29.67,WNW,283,7.0,14.0,76,0.00,,---,0.00,VWS V14.01,2013-02-01 10:26:00,
2013-02-01 05:31:00,15.1,8.6,29.67,WNW,301,10.0,14.0,75,0.00,,---,0.00,VWS V14.01,2013-02-01 10:31:00,
2013-02-01 05:36:00,15.1,8.0,29.67,WNW,291,15.0,15.0,73,0.00,,---,0.00,VWS V14.01,2013-02-01 10:36:00,
2013-02-01 05:41:00,15.2,7.5,29.67,West,269,10.0,18.0,71,0.00,,---,0.00,VWS V14.01,2013-02-01 10:41:00,
2013-02-01 05:46:00,15.2,7.5,29.68,WNW,283,5.0,15.0,71,0.00,,---,0.00,VWS V14.01,2013-02-01 10:46:00,
2013-02-01 05:51:00,15.2,7.5,29.68,WNW,294,9.0,18.0,71,0.00,,---,0.00,VWS V14.01,2013-02-01 10:51:00,
2013-02-01 05:56:00,15.3,7.6,29.68,WNW,293,8.0,22.0,71,0.00,,---,0.00,VWS V14.01,2013-02-01 10:56:00,
2013-02-01 06:01:00,15.3,7.6,29.68,WNW,297,8.0,18.0,71,0.00,,---,0.00,VWS V14.01,2013-02-01 11:01:00,
2013-02-01 06:06:00,15.2,7.5,29.69,West,266,9.0,15.0,71,0.00,,---,0.00,VWS V14.01,2013-02-01 11:06:00,
2013-02-01 06:11:00,15.0,7.3,29.69,WSW,242,9.0,13.0,71,0.00,,---,0.00,VWS V14.01,2013-02-01 11:11:00,
2013-02-01 06:16:00,14.9,7.5,29.70,WNW,295,8.0,13.0,72,0.00,,---,0.00,VWS V14.01,2013-02-01 11:16:00,
2013-02-01 06:21:00,14.9,7.5,29.70,WNW,302,11.0,18.0,72,0.00,,---,0.00,VWS V14.01,2013-02-01 11:21:00,
2013-02-01 06:26:00,14.9,7.5,29.71,NW,306,7.0,15.0,72,0.00,,---,0.00,VWS V14.01,2013-02-01 11:26:00,
2013-02-01 06:31:00,14.9,7.5,29.71,WNW,285,7.0,10.0,72,0.00,,---,0.00,VWS V14.01,2013-02-01 11:31:00,
2013-02-01 06:37:00,14.9,7.5,29.72,West,276,9.0,15.0,72,0.00,,---,0.00,VWS V14.01,2013-02-01 11:37:00,
2013-02-01 06:42:00,14.8,7.7,29.72,West,263,14.0,14.0,73,0.00,,---,0.00,VWS V14.01,2013-02-01 11:42:00,
2013-02-01 06:47:00,14.8,7.7,29.73,WNW,302,7.0,11.0,73,0.00,,---,0.00,VWS V14.01,2013-02-01 11:47:00,
2013-02-01 06:52:00,14.8,7.7,29.73,West,277,7.0,16.0,73,0.00,,---,0.00,VWS V14.01,2013-02-01 11:52:00,
2013-02-01 06:57:00,14.8,7.7,29.73,WNW,291,12.0,14.0,73,0.00,,---,0.00,VWS V14.01,2013-02-01 11:57:00,
2013-02-01 07:02:00,14.9,7.8,29.74,WNW,285,11.0,13.0,73,0.00,,---,0.00,VWS V14.01,2013-02-01 12:02:00,
2013-02-01 07:07:00,14.9,7.5,29.74,WNW,284,8.0,16.0,72,0.00,,---,0.00,VWS V14.01,2013-02-01 12:07:00,
2013-02-01 07:12:00,15.0,7.9,29.74,WNW,285,10.0,16.0,73,0.00,,---,0.00,VWS V14.01,2013-02-01 12:12:00,
2013-02-01 07:17:00,15.0,7.9,29.75,WNW,290,6.0,16.0,73,0.00,,---,0.00,VWS V14.01,2013-02-01 12:17:00,
2013-02-01 08:47:00,16.4,9.3,29.79,WNW,294,16.0,17.0,73,0.00,,---,0.00,VWS V14.01,2013-02-01 13:47:00,
2013-02-01 08:52:00,16.6,9.5,29.80,West,269,12.0,19.0,73,0.00,,---,0.00,VWS V14.01,2013-02-01 13:52:00,
2013-02-01 08:57:00,16.7,9.3,29.80,WNW,291,11.0,22.0,72,0.00,,---,0.00,VWS V14.01,2013-02-01 13:57:00,
2013-02-01 09:02:00,16.9,9.4,29.80,West,267,15.0,18.0,72,0.00,,---,0.00,VWS V14.01,2013-02-01 14:02:00,
2013-02-01 09:07:00,17.1,9.6,29.81,WSW,240,10.0,19.0,72,0.00,,---,0.00,VWS V14.01,2013-02-01 14:07:00,
2013-02-01 09:12:00,17.3,9.5,29.81,WSW,250,13.0,22.0,71,0.00,,---,0.00,VWS V14.01,2013-02-01 14:12:00,
2013-02-01 09:17:00,17.4,9.6,29.81,West,263,10.0,21.0,71,0.00,,---,0.00,VWS V14.01,2013-02-01 14:17:00,
2013-02-01 09:22:00,17.5,9.7,29.81,WNW,292,7.0,23.0,71,0.00,,---,0.00,VWS V14.01,2013-02-01 14:22:00,
2013-02-01 09:27:00,17.6,9.5,29.81,WNW,297,15.0,21.0,70,0.00,,---,0.00,VWS V14.01,2013-02-01 14:27:00,
2013-02-01 09:32:00,17.8,10.0,29.81,West,281,11.0,18.0,71,0.00,,---,0.00,VWS V14.01,2013-02-01 14:32:00,
2013-02-01 09:37:00,17.8,9.7,29.82,NW,314,9.0,22.0,70,0.00,,---,0.00,VWS V14.01,2013-02-01 14:37:00,
2013-02-01 09:42:00,17.6,9.5,29.82,West,280,13.0,20.0,70,0.00,,---,0.00,VWS V14.01,2013-02-01 14:42:00,
2013-02-01 09:47:00,18.0,9.9,29.82,WNW,285,15.0,23.0,70,0.00,,---,0.00,VWS V14.01,2013-02-01 14:47:00,
2013-02-01 09:52:00,18.0,9.6,29.82,WNW,300,10.0,21.0,69,0.00,,---,0.00,VWS V14.01,2013-02-01 14:52:00,
2013-02-01 09:57:00,18.2,9.8,29.82,West,262,8.0,23.0,69,0.00,,---,0.00,VWS V14.01,2013-02-01 14:57:00,
2013-02-01 10:02:00,18.6,10.5,29.82,WNW,300,10.0,17.0,70,0.00,,---,0.00,VWS V14.01,2013-02-01 15:02:00,
2013-02-01 10:07:00,18.3,9.9,29.83,WNW,284,16.0,30.0,69,0.00,,---,0.00,VWS V14.01,2013-02-01 15:07:00,
2013-02-01 10:12:00,17.9,9.1,29.83,NW,318,19.0,23.0,68,0.00,,---,0.00,VWS V14.01,2013-02-01 15:12:00,
2013-02-01 10:17:00,17.7,9.3,29.83,WNW,291,8.0,22.0,69,0.00,,---,0.00,VWS V14.01,2013-02-01 15:17:00,
2013-02-01 10:22:00,17.8,9.4,29.83,NW,307,8.0,18.0,69,0.00,,---,0.00,VWS V14.01,2013-02-01 15:22:00,
2013-02-01 10:27:00,17.9,9.5,29.83,WNW,300,17.0,25.0,69,0.00,,---,0.00,VWS V14.01,2013-02-01 15:27:00,
2013-02-01 10:32:00,17.8,9.4,29.84,WNW,291,12.0,20.0,69,0.00,,---,0.00,VWS V14.01,2013-02-01 15:32:00,
2013-02-01 10:38:00,17.7,9.3,29.84,WNW,289,18.0,23.0,69,0.00,,---,0.00,VWS V14.01,2013-02-01 15:38:00,
2013-02-01 10:43:00,17.9,9.5,29.84,West,269,14.0,19.0,69,0.00,,---,0.00,VWS V14.01,2013-02-01 15:43:00,
2013-02-01 10:48:00,17.9,9.1,29.84,WNW,295,11.0,20.0,68,0.00,,---,0.00,VWS V14.01,2013-02-01 15:48:00,
2013-02-01 10:53:00,18.2,9.8,29.84,WNW,295,14.0,19.0,69,0.00,,---,0.00,VWS V14.01,2013-02-01 15:53:00,
2013-02-01 10:58:00,18.4,9.6,29.84,West,274,15.0,19.0,68,0.00,,---,0.00,VWS V14.01,2013-02-01 15:58:00,
2013-02-01 11:03:00,18.3,9.5,29.84,NW,319,9.0,17.0,68,0.00,,---,0.00,VWS V14.01,2013-02-01 16:03:00,
2013-02-01 11:08:00,18.8,10.3,29.84,NW,305,13.0,18.0,69,0.00,,---,0.00,VWS V14.01,2013-02-01 16:08:00,
2013-02-01 11:13:00,18.6,9.1,29.84,West,281,15.0,21.0,66,0.00,,---,0.00,VWS V14.01,2013-02-01 16:13:00,
2013-02-01 11:18:00,18.6,9.1,29.84,WNW,283,18.0,19.0,66,0.00,,---,0.00,VWS V14.01,2013-02-01 16:18:00,
2013-02-01 11:23:00,18.7,9.2,29.83,WNW,300,11.0,20.0,66,0.00,,---,0.00,VWS V14.01,2013-02-01 16:23:00,
2013-02-01 11:28:00,18.8,10.6,29.84,NW,317,9.0,19.0,70,0.00,,---,0.00,VWS V14.01,2013-02-01 16:28:00,
2013-02-01 11:33:00,17.5,12.7,29.84,NW,322,17.0,21.0,81,0.00,,---,0.00,VWS V14.01,2013-02-01 16:33:00,
2013-02-01 11:38:00,16.4,12.7,29.84,NW,311,10.0,20.0,85,0.00,,---,0.00,VWS V14.01,2013-02-01 16:38:00,
2013-02-01 11:43:00,16.1,12.7,29.84,NW,307,12.0,24.0,86,0.00,,---,0.00,VWS V14.01,2013-02-01 16:43:00,
2013-02-01 11:48:00,15.8,12.4,29.84,NW,322,13.0,18.0,86,0.00,,---,0.00,VWS V14.01,2013-02-01 16:48:00,
2013-02-01 11:53:00,15.5,12.3,29.84,WNW,297,22.0,22.0,87,0.00,,---,0.00,VWS V14.01,2013-02-01 16:53:00,
2013-02-01 11:58:00,15.0,12.4,29.84,WNW,293,15.0,22.0,89,0.00,,---,0.00,VWS V14.01,2013-02-01 16:58:00,
2013-02-01 12:03:00,14.9,12.5,29.84,NW,305,14.0,24.0,90,0.00,,---,0.00,VWS V14.01,2013-02-01 17:03:00,
2013-02-01 12:08:00,15.2,12.6,29.84,WNW,293,20.0,25.0,89,0.00,,---,0.00,VWS V14.01,2013-02-01 17:08:00,
2013-02-01 12:13:00,15.2,12.6,29.85,WNW,294,15.0,25.0,89,0.00,,---,0.00,VWS V14.01,2013-02-01 17:13:00,
2013-02-01 12:18:00,15.3,12.9,29.85,WNW,300,15.0,24.0,90,0.00,,---,0.00,VWS V14.01,2013-02-01 17:18:00,
2013-02-01 12:23:00,15.2,12.6,29.84,WNW,300,13.0,24.0,89,0.00,,---,0.00,VWS V14.01,2013-02-01 17:23:00,
2013-02-01 12:28:00,15.3,12.9,29.84,West,273,8.0,20.0,90,0.00,,---,0.00,VWS V14.01,2013-02-01 17:28:00,
2013-02-01 12:33:00,15.9,13.2,29.84,WNW,298,10.0,18.0,89,0.00,,---,0.00,VWS V14.01,2013-02-01 17:33:00,
2013-02-01 12:38:00,16.3,12.6,29.84,NW,305,14.0,23.0,85,0.00,,---,0.00,VWS V14.01,2013-02-01 17:38:00,
2013-02-01 12:43:00,17.0,12.2,29.84,WNW,295,12.0,19.0,81,0.00,,---,0.00,VWS V14.01,2013-02-01 17:43:00,
2013-02-01 12:48:00,17.8,12.4,29.83,WNW,297,13.0,20.0,79,0.00,,---,0.00,VWS V14.01,2013-02-01 17:48:00,
2013-02-01 12:53:00,17.8,10.6,29.83,NNW,335,14.0,25.0,73,0.00,,---,0.00,VWS V14.01,2013-02-01 17:53:00,
2013-02-01 12:58:00,17.1,9.3,29.83,WNW,284,15.0,24.0,71,0.00,,---,0.00,VWS V14.01,2013-02-01 17:58:00,
2013-02-01 13:03:00,17.1,9.0,29.83,NW,318,15.0,30.0,70,0.00,,---,0.00,VWS V14.01,2013-02-01 18:03:00,
2013-02-01 13:08:00,17.5,8.8,29.83,NW,309,19.0,28.0,68,0.00,,---,0.00,VWS V14.01,2013-02-01 18:08:00,
2013-02-01 13:13:00,17.5,8.4,29.83,NW,314,14.0,35.0,67,0.00,,---,0.00,VWS V14.01,2013-02-01 18:13:00,
2013-02-01 13:18:00,17.3,7.9,29.84,NW,308,22.0,33.0,66,0.00,,---,0.00,VWS V14.01,2013-02-01 18:18:00,
2013-02-01 13:23:00,17.1,7.4,29.84,WNW,294,19.0,29.0,65,0.00,,---,0.00,VWS V14.01,2013-02-01 18:23:00,
2013-02-01 13:28:00,17.4,7.7,29.84,West,280,16.0,28.0,65,0.00,,---,0.00,VWS V14.01,2013-02-01 18:28:00,
2013-02-01 13:33:00,17.6,7.8,29.84,WNW,299,14.0,28.0,65,0.00,,---,0.00,VWS V14.01,2013-02-01 18:33:00,
2013-02-01 13:38:00,17.3,7.9,29.84,WNW,300,16.0,33.0,66,0.00,,---,0.00,VWS V14.01,2013-02-01 18:38:00,
2013-02-01 13:43:00,17.6,7.8,29.85,NW,314,20.0,25.0,65,0.00,,---,0.00,VWS V14.01,2013-02-01 18:43:00,
2013-02-01 13:48:00,17.9,7.8,29.85,WNW,295,17.0,21.0,64,0.00,,---,0.00,VWS V14.01,2013-02-01 18:48:00,
2013-02-01 13:53:00,18.4,8.6,29.85,NW,323,15.0,24.0,65,0.00,,---,0.00,VWS V14.01,2013-02-01 18:53:00,
2013-02-01 13:58:00,18.5,8.4,29.86,WNW,283,23.0,32.0,64,0.00,,---,0.00,VWS V14.01,2013-02-01 18:58:00,
2013-02-01 14:04:00,18.5,8.0,29.86,WNW,291,13.0,26.0,63,0.00,,---,0.00,VWS V14.01,2013-02-01 19:04:00,
2013-02-01 14:09:00,18.6,8.5,29.86,WNW,298,16.0,29.0,64,0.00,,---,0.00,VWS V14.01,2013-02-01 19:09:00,
2013-02-01 14:14:00,18.7,8.6,29.87,West,278,15.0,25.0,64,0.00,,---,0.00,VWS V14.01,2013-02-01 19:14:00,
2013-02-01 14:19:00,18.3,7.5,29.86,WNW,300,25.0,30.0,62,0.00,,---,0.00,VWS V14.01,2013-02-01 19:19:00,
2013-02-01 14:24:00,17.5,6.4,29.87,WNW,297,30.0,36.0,61,0.00,,---,0.00,VWS V14.01,2013-02-01 19:24:00,
2013-02-01 14:29:00,16.4,6.4,29.87,NW,305,18.0,34.0,64,0.00,,---,0.00,VWS V14.01,2013-02-01 19:29:00,
2013-02-01 14:34:00,16.2,5.8,29.87,NW,310,18.0,34.0,63,0.00,,---,0.00,VWS V14.01,2013-02-01 19:34:00,
2013-02-01 14:39:00,15.8,5.8,29.88,NW,322,17.0,32.0,64,0.00,,---,0.00,VWS V14.01,2013-02-01 19:39:00,
2013-02-01 14:44:00,15.9,5.9,29.88,NW,312,13.0,27.0,64,0.00,,---,0.00,VWS V14.01,2013-02-01 19:44:00,
2013-02-01 14:49:00,16.5,6.1,29.89,West,280,18.0,26.0,63,0.00,,---,0.00,VWS V14.01,2013-02-01 19:49:00,
2013-02-01 14:54:00,17.3,7.6,29.89,WNW,291,12.0,22.0,65,0.00,,---,0.00,VWS V14.01,2013-02-01 19:54:00,
2013-02-01 14:59:00,17.5,7.4,29.89,NW,307,20.0,24.0,64,0.00,,---,0.00,VWS V14.01,2013-02-01 19:59:00,
2013-02-01 15:04:00,17.2,7.1,29.89,NW,312,17.0,31.0,64,0.00,,---,0.00,VWS V14.01,2013-02-01 20:04:00,
2013-02-01 15:09:00,17.0,6.2,29.89,NW,308,14.0,30.0,62,0.00,,---,0.00,VWS V14.01,2013-02-01 20:09:00,
2013-02-01 15:14:00,16.9,6.2,29.90,NW,312,26.0,36.0,62,0.00,,---,0.00,VWS V14.01,2013-02-01 20:14:00,
2013-02-01 15:19:00,16.8,6.4,29.90,WNW,290,15.0,25.0,63,0.00,,---,0.00,VWS V14.01,2013-02-01 20:19:00,
2013-02-01 15:24:00,16.7,6.7,29.91,WNW,297,15.0,33.0,64,0.00,,---,0.00,VWS V14.01,2013-02-01 20:24:00,
2013-02-01 15:29:00,16.3,6.9,29.91,NW,308,16.0,28.0,66,0.00,,---,0.00,VWS V14.01,2013-02-01 20:29:00,
2013-02-01 15:34:00,16.1,7.1,29.92,NW,321,23.0,28.0,67,0.00,,---,0.00,VWS V14.01,2013-02-01 20:34:00,
2013-02-01 15:39:00,16.1,7.4,29.92,WNW,298,10.0,24.0,68,0.00,,---,0.00,VWS V14.01,2013-02-01 20:39:00,
2013-02-01 15:44:00,16.2,7.2,29.93,WNW,290,18.0,26.0,67,0.00,,---,0.00,VWS V14.01,2013-02-01 20:44:00,
2013-02-01 15:49:00,16.0,7.3,29.94,WNW,297,13.0,21.0,68,0.00,,---,0.00,VWS V14.01,2013-02-01 20:49:00,
2013-02-01 15:54:00,15.5,6.2,29.94,NW,323,15.0,32.0,66,0.00,,---,0.00,VWS V14.01,2013-02-01 20:54:00,
2013-02-01 15:59:00,15.5,6.5,29.94,NW,318,13.0,22.0,67,0.00,,---,0.00,VWS V14.01,2013-02-01 20:59:00,
2013-02-01 16:04:00,15.3,6.0,29.95,NW,312,23.0,29.0,66,0.00,,---,0.00,VWS V14.01,2013-02-01 21:04:00,
2013-02-01 16:09:00,14.9,5.3,29.95,WNW,295,18.0,28.0,65,0.00,,---,0.00,VWS V14.01,2013-02-01 21:09:00,
2013-02-01 16:14:00,14.6,5.0,29.95,WNW,291,17.0,28.0,65,0.00,,---,0.00,VWS V14.01,2013-02-01 21:14:00,
2013-02-01 16:19:00,14.4,5.5,29.95,NW,308,13.0,25.0,67,0.00,,---,0.00,VWS V14.01,2013-02-01 21:19:00,
2013-02-01 16:24:00,14.4,5.5,29.96,WNW,294,12.0,27.0,67,0.00,,---,0.00,VWS V14.01,2013-02-01 21:24:00,
2013-02-01 16:29:00,14.5,6.2,29.96,NW,311,13.0,21.0,69,0.00,,---,0.00,VWS V14.01,2013-02-01 21:29:00,
2013-02-01 16:34:00,14.5,5.6,29.96,North,354,11.0,26.0,67,0.00,,---,0.00,VWS V14.01,2013-02-01 21:34:00,
2013-02-01 16:39:00,14.5,5.6,29.97,NNW,330,12.0,28.0,67,0.00,,---,0.00,VWS V14.01,2013-02-01 21:39:00,
2013-02-01 16:44:00,14.5,5.6,29.97,NW,316,17.0,27.0,67,0.00,,---,0.00,VWS V14.01,2013-02-01 21:44:00,
2013-02-01 16:49:00,14.4,5.5,29.97,NW,304,14.0,19.0,67,0.00,,---,0.00,VWS V14.01,2013-02-01 21:49:00,
2013-02-01 16:54:00,14.5,5.6,29.98,West,276,16.0,24.0,67,0.00,,---,0.00,VWS V14.01,2013-02-01 21:54:00,
2013-02-01 16:59:00,14.4,6.1,29.98,WNW,301,16.0,24.0,69,0.00,,---,0.00,VWS V14.01,2013-02-01 21:59:00,
2013-02-01 17:04:00,14.2,7.7,29.99,WNW,297,10.0,19.0,75,0.00,,---,0.00,VWS V14.01,2013-02-01 22:04:00,
2013-02-01 17:09:00,13.9,6.6,29.99,WNW,302,19.0,26.0,72,0.00,,---,0.00,VWS V14.01,2013-02-01 22:09:00,
2013-02-01 17:14:00,13.9,6.9,29.99,WNW,294,10.0,26.0,73,0.00,,---,0.00,VWS V14.01,2013-02-01 22:14:00,
2013-02-01 17:20:00,13.8,5.5,30.00,WNW,284,12.0,25.0,69,0.00,,---,0.00,VWS V14.01,2013-02-01 22:20:00,
2013-02-01 17:25:00,13.7,5.1,30.00,NW,309,15.0,26.0,68,0.00,,---,0.00,VWS V14.01,2013-02-01 22:25:00,
2013-02-01 17:30:00,13.6,5.3,30.00,WNW,290,13.0,18.0,69,0.00,,---,0.00,VWS V14.01,2013-02-01 22:30:00,
2013-02-01 17:35:00,13.5,5.2,30.00,WNW,290,15.0,25.0,69,0.00,,---,0.00,VWS V14.01,2013-02-01 22:35:00,
2013-02-01 17:40:00,13.4,5.1,30.01,WNW,297,17.0,19.0,69,0.00,,---,0.00,VWS V14.01,2013-02-01 22:40:00,
2013-02-01 17:45:00,13.4,5.5,30.01,WNW,301,14.0,24.0,70,0.00,,---,0.00,VWS V14.01,2013-02-01 22:45:00,
2013-02-01 17:50:00,13.4,5.8,30.02,WNW,295,12.0,21.0,71,0.00,,---,0.00,VWS V14.01,2013-02-01 22:50:00,
2013-02-01 17:55:00,13.3,5.7,30.02,WNW,293,14.0,17.0,71,0.00,,---,0.00,VWS V14.01,2013-02-01 22:55:00,
2013-02-01 18:00:00,13.2,5.9,30.02,NW,304,8.0,16.0,72,0.00,,---,0.00,VWS V14.01,2013-02-01 23:00:00,
2013-02-01 18:06:00,13.0,5.7,30.03,NW,304,6.0,18.0,72,0.00,,---,0.00,VWS V14.01,2013-02-01 23:06:00,
2013-02-01 18:11:00,13.0,5.7,30.03,WNW,291,10.0,17.0,72,0.00,,---,0.00,VWS V14.01,2013-02-01 23:11:00,
2013-02-01 18:16:00,13.0,6.0,30.03,WNW,295,12.0,26.0,73,0.00,,---,0.00,VWS V14.01,2013-02-01 23:16:00,
2013-02-01 18:21:00,13.1,6.1,30.03,WNW,293,16.0,24.0,73,0.00,,---,0.00,VWS V14.01,2013-02-01 23:21:00,
2013-02-01 18:26:00,13.0,6.0,30.03,NW,304,12.0,22.0,73,0.00,,---,0.00,VWS V14.01,2013-02-01 23:26:00,
2013-02-01 18:31:00,12.9,6.2,30.04,WNW,300,9.0,21.0,74,0.00,,---,0.00,VWS V14.01,2013-02-01 23:31:00,
2013-02-01 18:36:00,12.8,6.4,30.04,WNW,295,12.0,19.0,75,0.00,,---,0.00,VWS V14.01,2013-02-01 23:36:00,
2013-02-01 18:41:00,12.7,6.3,30.05,WNW,290,7.0,16.0,75,0.00,,---,0.00,VWS V14.01,2013-02-01 23:41:00,
2013-02-01 18:46:00,12.7,6.6,30.05,NW,319,11.0,22.0,76,0.00,,---,0.00,VWS V14.01,2013-02-01 23:46:00,
2013-02-01 18:51:00,12.8,7.0,30.05,WNW,292,11.0,18.0,77,0.00,,---,0.00,VWS V14.01,2013-02-01 23:51:00,
2013-02-01 18:56:00,12.8,7.2,30.06,West,278,12.0,18.0,78,0.00,,---,0.00,VWS V14.01,2013-02-01 23:56:00,
2013-02-01 19:01:00,12.8,7.5,30.06,West,280,9.0,14.0,79,0.00,,---,0.00,VWS V14.01,2013-02-02 00:01:00,
2013-02-01 19:06:00,12.8,7.8,30.06,WNW,293,8.0,15.0,80,0.00,,---,0.00,VWS V14.01,2013-02-02 00:06:00,
2013-02-01 19:11:00,12.7,8.0,30.06,WNW,301,8.0,14.0,81,0.00,,---,0.00,VWS V14.01,2013-02-02 00:11:00,
2013-02-01 19:16:00,12.7,8.0,30.06,WNW,287,8.0,15.0,81,0.00,,---,0.00,VWS V14.01,2013-02-02 00:16:00,
2013-02-01 19:21:00,12.7,8.0,30.06,WNW,298,12.0,19.0,81,0.00,,---,0.00,VWS V14.01,2013-02-02 00:21:00,
2013-02-01 19:26:00,12.8,7.8,30.06,NW,304,12.0,15.0,80,0.00,,---,0.00,VWS V14.01,2013-02-02 00:26:00,
2013-02-01 19:31:00,12.9,7.6,30.06,West,280,8.0,18.0,79,0.00,,---,0.00,VWS V14.01,2013-02-02 00:31:00,
2013-02-01 19:36:00,13.0,7.7,30.07,WNW,299,7.0,14.0,79,0.00,,---,0.00,VWS V14.01,2013-02-02 00:36:00,
2013-02-01 19:41:00,13.2,7.9,30.07,WNW,297,9.0,20.0,79,0.00,,---,0.00,VWS V14.01,2013-02-02 00:41:00,
2013-02-01 19:46:00,13.3,7.4,30.07,WNW,294,19.0,20.0,77,0.00,,---,0.00,VWS V14.01,2013-02-02 00:46:00,
2013-02-01 19:51:00,13.4,7.3,30.06,WNW,297,9.0,25.0,76,0.00,,---,0.00,VWS V14.01,2013-02-02 00:51:00,
2013-02-01 19:57:00,13.3,7.2,30.07,WNW,300,8.0,19.0,76,0.00,,---,0.00,VWS V14.01,2013-02-02 00:57:00,
2013-02-01 20:02:00,13.3,6.9,30.07,NW,305,13.0,21.0,75,0.00,,---,0.00,VWS V14.01,2013-02-02 01:02:00,
2013-02-01 20:07:00,13.4,6.7,30.07,WNW,294,10.0,22.0,74,0.00,,---,0.00,VWS V14.01,2013-02-02 01:07:00,
2013-02-01 20:12:00,13.3,6.6,30.07,NW,308,12.0,19.0,74,0.00,,---,0.00,VWS V14.01,2013-02-02 01:12:00,
2013-02-01 20:17:00,13.3,6.3,30.07,WNW,283,14.0,16.0,73,0.00,,---,0.00,VWS V14.01,2013-02-02 01:17:00,
2013-02-01 20:22:00,13.3,6.0,30.07,WNW,285,14.0,23.0,72,0.00,,---,0.00,VWS V14.01,2013-02-02 01:22:00,
2013-02-01 20:27:00,13.3,6.0,30.07,West,269,14.0,22.0,72,0.00,,---,0.00,VWS V14.01,2013-02-02 01:27:00,
2013-02-01 20:32:00,13.4,6.1,30.07,WNW,300,11.0,21.0,72,0.00,,---,0.00,VWS V14.01,2013-02-02 01:32:00,
2013-02-01 20:37:00,13.5,6.2,30.08,WNW,290,22.0,22.0,72,0.00,,---,0.00,VWS V14.01,2013-02-02 01:37:00,
2013-02-01 20:42:00,13.4,6.1,30.08,WNW,293,14.0,23.0,72,0.00,,---,0.00,VWS V14.01,2013-02-02 01:42:00,
2013-02-01 20:47:00,13.3,6.0,30.08,West,273,20.0,20.0,72,0.00,,---,0.00,VWS V14.01,2013-02-02 01:47:00,
2013-02-01 20:52:00,13.2,5.6,30.08,WNW,294,11.0,21.0,71,0.00,,---,0.00,VWS V14.01,2013-02-02 01:52:00,
2013-02-01 20:57:00,13.2,5.6,30.08,West,262,12.0,21.0,71,0.00,,---,0.00,VWS V14.01,2013-02-02 01:57:00,
2013-02-01 21:02:00,13.2,5.6,30.08,WNW,293,22.0,22.0,71,0.00,,---,0.00,VWS V14.01,2013-02-02 02:02:00,
2013-02-01 21:07:00,13.2,5.9,30.09,West,281,7.0,18.0,72,0.00,,---,0.00,VWS V14.01,2013-02-02 02:07:00,
2013-02-01 21:12:00,13.3,5.7,30.09,WNW,292,11.0,19.0,71,0.00,,---,0.00,VWS V14.01,2013-02-02 02:12:00,
2013-02-01 21:17:00,13.2,5.9,30.09,WNW,298,19.0,19.0,72,0.00,,---,0.00,VWS V14.01,2013-02-02 02:17:00,
2013-02-01 21:22:00,13.2,5.9,30.09,NW,315,7.0,16.0,72,0.00,,---,0.00,VWS V14.01,2013-02-02 02:22:00,
2013-02-01 21:27:00,13.2,5.9,30.09,NW,305,10.0,20.0,72,0.00,,---,0.00,VWS V14.01,2013-02-02 02:27:00,
2013-02-01 21:32:00,13.0,6.0,30.10,WNW,295,9.0,21.0,73,0.00,,---,0.00,VWS V14.01,2013-02-02 02:32:00,
2013-02-01 21:37:00,12.8,6.1,30.10,NW,318,15.0,15.0,74,0.00,,---,0.00,VWS V14.01,2013-02-02 02:37:00,
2013-02-01 21:42:00,12.8,5.8,30.10,WNW,288,15.0,15.0,73,0.00,,---,0.00,VWS V14.01,2013-02-02 02:42:00,
2013-02-01 21:47:00,12.8,6.1,30.10,WNW,293,8.0,13.0,74,0.00,,---,0.00,VWS V14.01,2013-02-02 02:47:00,
2013-02-01 21:52:00,12.9,5.9,30.10,WNW,300,9.0,18.0,73,0.00,,---,0.00,VWS V14.01,2013-02-02 02:52:00,
2013-02-01 21:57:00,13.0,6.0,30.10,NW,316,11.0,17.0,73,0.00,,---,0.00,VWS V14.01,2013-02-02 02:57:00,
2013-02-01 22:02:00,13.1,5.8,30.10,WNW,292,11.0,23.0,72,0.00,,---,0.00,VWS V14.01,2013-02-02 03:02:00,
2013-02-01 22:07:00,13.0,6.0,30.11,WNW,290,15.0,16.0,73,0.00,,---,0.00,VWS V14.01,2013-02-02 03:07:00,
2013-02-01 22:12:00,13.0,6.0,30.11,WNW,300,12.0,23.0,73,0.00,,---,0.00,VWS V14.01,2013-02-02 03:12:00,
2013-02-01 22:17:00,12.9,5.9,30.11,WNW,289,14.0,25.0,73,0.00,,---,0.00,VWS V14.01,2013-02-02 03:17:00,
2013-02-01 22:22:00,12.9,6.2,30.11,WNW,300,12.0,25.0,74,0.00,,---,0.00,VWS V14.01,2013-02-02 03:22:00,
2013-02-01 22:27:00,13.0,6.3,30.11,WNW,294,10.0,22.0,74,0.00,,---,0.00,VWS V14.01,2013-02-02 03:27:00,
2013-02-01 22:32:00,13.0,6.3,30.11,NW,304,16.0,20.0,74,0.00,,---,0.00,VWS V14.01,2013-02-02 03:32:00,
2013-02-01 22:37:00,13.0,6.9,30.11,NW,311,13.0,32.0,76,0.00,,---,0.00,VWS V14.01,2013-02-02 03:37:00,
2013-02-01 22:42:00,12.8,7.2,30.12,NNW,344,14.0,22.0,78,0.00,,---,0.00,VWS V14.01,2013-02-02 03:42:00,
2013-02-01 22:47:00,12.6,7.9,30.12,WNW,284,9.0,17.0,81,0.00,,---,0.00,VWS V14.01,2013-02-02 03:47:00,
2013-02-01 22:52:00,12.3,8.7,30.12,WNW,299,16.0,19.0,85,0.00,,---,0.00,VWS V14.01,2013-02-02 03:52:00,
2013-02-01 22:57:00,12.2,8.8,30.12,NW,308,9.0,21.0,86,0.00,,---,0.00,VWS V14.01,2013-02-02 03:57:00,
2013-02-01 23:02:00,12.2,8.8,30.13,WNW,300,14.0,25.0,86,0.00,,---,0.00,VWS V14.01,2013-02-02 04:02:00,
2013-02-01 23:07:00,12.2,9.1,30.13,NW,309,11.0,17.0,87,0.00,,---,0.00,VWS V14.01,2013-02-02 04:07:00,
2013-02-01 23:12:00,12.1,9.0,30.13,WNW,298,9.0,19.0,87,0.00,,---,0.00,VWS V14.01,2013-02-02 04:12:00,
2013-02-01 23:18:00,12.0,9.1,30.14,NW,310,9.0,17.0,88,0.00,,---,0.00,VWS V14.01,2013-02-02 04:18:00,
2013-02-01 23:23:00,12.0,9.4,30.14,NW,305,8.0,15.0,89,0.00,,---,0.00,VWS V14.01,2013-02-02 04:23:00,
2013-02-01 23:28:00,11.9,9.5,30.14,West,280,11.0,14.0,90,0.00,,---,0.00,VWS V14.01,2013-02-02 04:28:00,
2013-02-01 23:33:00,12.0,9.6,30.14,NW,304,8.0,16.0,90,0.00,,---,0.00,VWS V14.01,2013-02-02 04:33:00,
2013-02-01 23:38:00,11.9,9.5,30.15,WNW,301,8.0,13.0,90,0.00,,---,0.00,VWS V14.01,2013-02-02 04:38:00,
2013-02-01 23:43:00,12.0,9.6,30.15,NW,305,7.0,18.0,90,0.00,,---,0.00,VWS V14.01,2013-02-02 04:43:00,
2013-02-01 23:48:00,11.9,9.3,30.15,WNW,301,5.0,24.0,89,0.00,,---,0.00,VWS V14.01,2013-02-02 04:48:00,
2013-02-01 23:53:00,11.9,9.3,30.16,WNW,302,5.0,13.0,89,0.00,,---,0.00,VWS V14.01,2013-02-02 04:53:00,
2013-02-01 23:58:00,11.9,9.3,30.15,NW,308,14.0,14.0,89,0.00,,---,0.00,VWS V14.01,2013-02-02 04:58:00,